Columbus, Ohio
Traffic Map
Current Weather Conditions
Columbus, Ohio
Clear
Clear
81°
Feels Like: 81°
Wind Chill: 81° Ceiling: Unl
Heat Index: 81° Visibility: 10mi
Dew Point: 58° Wind: 5mph
Humidity: 45% Direction: 160° (SSE)
Pressure: 30.1in Gusts: 0mph
Raw Report DataKCMH 260151Z 16004KT 10SM CLR 27/14 A3010 RMK AO2 SLP185 T02720144
Traffic Incident Summary
Active as of:
Severity:
Category:
InformationThere was an issue retrieving the traffic information for this location. Please try a different location or try again shortly.
Advertisements
Track Severe Weather on mobile